Théo Duvaldestin

Théo Duvaldestin

Statistiques 2026

  • Courses courues : 101
  • Nb de victoires : 28
  • Nb de places : 50
  • Écart gagnant : -
  • Réussite à la gagne : 28%
  • Réussite à la place : 50%
Musique : 1a 3a Da 2a 6a 1a 2a 1a 1a Da Da 1a 1a 6a 1a Da 2a Da
DateRangCatégorieAlloc.Dist.HippodromeChevalRed. KmSpé.
10/01/19 8 Trot 18 000€ 2 275m Nantes Fadette d'Aurcy 1'17"9 Attelé
08/01/19 6 Trot 31 000€ 2 850m Vincennes Fauve 1'17"6 Attelé lire

N'a été qu'une simple figurante au sein du peloton.

02/01/19 D Trot 18 000€ 2 875m Vincennes Eronn Castelets Attelé lire

Progressivement rapproché en face en dehors, a marqué le pas pour finir et a été sanctionné.

30/12/18 D Trot 18 000€ 2 850m Cordemais Carnaval du Vivier Attelé
28/12/18 1 Trot 20 000€ 2 200m Vincennes Guarda 1'18"6 Attelé lire

Après avoir figuré, s'est assurée le meilleur au bout de la ligne opposée et n'a plus été inquiétée.

21/12/18 0 Trot 55 000€ 2 850m Vincennes Daybreak Attelé lire

N'a joué aucun rôle utile.

16/12/18 2 Trot 20 000€ 3 150m Angers Forever Isques 1'17"6 Attelé
05/12/18 0 Trot 42 000€ 2 700m Vincennes Eureka de Tillard Attelé lire

N'a joué aucun rôle.

30/11/18 D Trot 45 000€ 2 850m Vincennes Eronn Castelets Attelé lire

Après avoir figuré, a lâché prise en face et a été sanctionné pour allures douteuses.

24/11/18 3 Trot 22 000€ 2 725m Graignes Carnaval du Vivier 1'15"5 Attelé
19/11/18 1 Trot 12 000€ 2 750m Cabourg Forever Isques 1'18"8 Attelé
04/11/18 D Mixte 17 000€ 3 025m Nantes Ecu du Vivier Attelé
28/10/18 9 Mixte 20 000€ 2 700m Machecoul Beatus Avis 1'17"8 Attelé
28/10/18 3 Mixte 17 000€ 2 725m Machecoul Carnaval du Vivier 1'16"9 Attelé
23/10/18 2 Trot 36 000€ 2 050m Cabourg Etincelle Destinee 1'13"4 Attelé
21/10/18 D Trot 30 000€ 2 975m Le Mans Avertin Belri Attelé
14/10/18 7 Trot 30 000€ 2 700m Graignes Anza du Carbonel 1'16"2 Attelé
12/10/18 7 Trot 14 000€ 2 875m Laval Faithful Man 1'16"8 Attelé
08/10/18 D Mixte 11 000€ 2 850m Nuille Sur Vicoin Forever Isques Attelé
02/10/18 4 Trot 24 000€ 2 750m Cabourg Excessive Well 1'16"4 Attelé
30/09/18 7 Trot 25 000€ 2 825m Cholet Be Good 1'17"3 Attelé
30/09/18 D Trot 14 000€ 2 800m Cholet Elea des Monts Attelé
30/09/18 D Trot 13 000€ 2 825m Cholet Freddy Boy Attelé
24/09/18 1 Trot 12 000€ 2 450m Caen Excessive Well 1'16"1 Attelé
24/09/18 D Trot 12 000€ 2 450m Caen Famous Wind Attelé
23/09/18 6 Trot 13 000€ 2 525m Les Andelys Eros du Vivier Attelé
23/09/18 D Trot 15 000€ 2 525m Les Andelys Faithful Man Attelé
22/09/18 8 Trot 21 000€ 2 850m Mauquenchy Franklin Star 1'20"9 Attelé
22/09/18 1 Trot 21 000€ 2 875m Mauquenchy Ecu du Vivier 1'18"9 Attelé
16/09/18 1 Trot 12 000€ 2 800m Rambouillet Freddy Boy Attelé
15/09/18 3 Mixte 13 000€ 2 750m Le Pertre Excessive Well TNC Attelé
15/09/18 1 Mixte 18 000€ 2 775m Le Pertre Cash de Fael Attelé
09/09/18 0 Mixte 32 000€ 3 000m Chateaubriant Alex Trã–Jborg Attelé
09/09/18 D Mixte 25 000€ 3 025m Chateaubriant Donato Pierji Attelé
08/09/18 3 Trot 65 000€ 2 850m Vincennes Boy Dancer 1'13"7 Attelé lire

Vite en bonne place, a joué de malchance au sommet de la montée, avant de bien terminer.

30/08/18 7 Trot 44 000€ 2 850m Vincennes Etincelle Destinee 1'15"2 Attelé lire

Longtemps en troisième position, a nettement faibli dans la phase finale.

27/08/18 D Mixte 11 000€ 2 675m Vertou Freddy Boy Attelé
26/08/18 1 Mixte 12 000€ 2 675m Vertou Fauve TNC Attelé
24/08/18 6 Trot 27 000€ 2 700m Divonne Les Bains Bise du Coglais 1'14"9 Attelé
15/08/18 3 Trot 15 000€ 2 575m Dieppe Express de Tillard 1'24"9 Attelé
15/08/18 D Trot 14 000€ 2 550m Dieppe Free Destin Attelé
12/08/18 1 Trot 32 000€ 2 500m Royan La Palmyre Boy Dancer 1'15"5 Attelé
11/08/18 8 Trot 35 000€ 2 875m Enghien Soisy Fauve 1'17"9 Attelé lire

Longtemps en retrait et fautive, a très bien conclu sans avoir eu ses aises un moment.

06/08/18 D Trot 20 000€ 2 875m Meslay Du Maine Dietje Labelle Attelé
05/08/18 8 Trot 22 000€ 2 475m Royan La Palmyre Arcadie des Vaux 1'17"8 Attelé
05/08/18 1 Trot 25 000€ 2 500m Royan La Palmyre Astor de Rozoy 1'14"5 Attelé
05/08/18 D Trot 18 000€ 2 475m Royan La Palmyre Bernice du Chef Attelé
04/08/18 3 Trot 20 000€ 2 300m Chateaubriant Fameux Destin 1'16"4 Attelé
02/08/18 1 Trot 21 000€ 2 500m La Rochelle Diego de Cahot 1'14"4 Attelé
02/08/18 3 Trot 20 000€ 2 650m La Rochelle Envolee Destinee 1'14"3 Attelé